KRWF/RWF METAR and TAF weather

Enter ICAO airport designator
Station Type Date Time Source
KRWF METAR 2021/03/08 15:53 UTC NOAA

KRWF 081553Z AUTO 17006KT 10SM CLR 08/01 A3026 RMK AO2 SLP252 T00780006


Station Type Date Time Source
KRWF Decoded METAR 2021/03/08 15:53 UTC NOAA

REDWOOD FALLS MUNICIPAL, MN, United States (KRWF) 44-33N 95-05W 311M
Mar 08, 2021 - 10:53 AM EST / 2021.03.08 1553 UTC
Wind: from the S (170 degrees) at 7 MPH (6 KT):0
Visibility: 10 mile(s):0
Sky conditions: clear
Temperature: 46.0 F (7.8 C)
Dew Point: 33.1 F (0.6 C)
Relative Humidity: 60%
Pressure (altimeter): 30.26 in. Hg (1024 hPa)
ob: KRWF 081553Z AUTO 17006KT 10SM CLR 08/01 A3026 RMK AO2 SLP252 T00780006
cycle: 16

Station Type Date Time Source
KRWF TAF 2021/03/08 12:22 UTC NOAA

TAF KRWF 081120Z 0812/0912 VRB05KT P6SM SKC
FM081500 12009KT P6SM SKC
FM090400 13012KT P6SM BKN200 WS020/20040KT

Example: see airport list